sensor_id;sensor_type;location;lat;lon;timestamp;pressure;altitude;pressure_sealevel;temperature;humidity
42411;BME280;28056;51.112;0.984;2023-02-20T00:00:54;101785.58;;;9.90;56.99
42411;BME280;28056;51.112;0.984;2023-02-20T00:03:21;101781.39;;;10.29;56.48
42411;BME280;28056;51.112;0.984;2023-02-20T00:05:48;101770.71;;;10.65;55.53
42411;BME280;28056;51.112;0.984;2023-02-20T00:08:15;101775.86;;;10.54;57.90
42411;BME280;28056;51.112;0.984;2023-02-20T00:10:42;101778.88;;;10.36;56.49
42411;BME280;28056;51.112;0.984;2023-02-20T00:13:10;101783.13;;;10.28;56.88
42411;BME280;28056;51.112;0.984;2023-02-20T00:15:38;101777.36;;;9.83;57.31
42411;BME280;28056;51.112;0.984;2023-02-20T00:18:06;101774.62;;;9.44;58.93
42411;BME280;28056;51.112;0.984;2023-02-20T00:20:33;101782.40;;;8.65;59.24
42411;BME280;28056;51.112;0.984;2023-02-20T00:23:00;101780.61;;;9.79;58.43
42411;BME280;28056;51.112;0.984;2023-02-20T00:25:27;101773.37;;;9.98;60.84
42411;BME280;28056;51.112;0.984;2023-02-20T00:27:54;101768.06;;;9.63;58.53
42411;BME280;28056;51.112;0.984;2023-02-20T00:30:23;101770.59;;;9.40;59.17
42411;BME280;28056;51.112;0.984;2023-02-20T00:32:52;101765.07;;;9.39;59.67
42411;BME280;28056;51.112;0.984;2023-02-20T00:35:21;101764.76;;;9.01;62.23
42411;BME280;28056;51.112;0.984;2023-02-20T00:37:49;101756.11;;;8.45;63.18
42411;BME280;28056;51.112;0.984;2023-02-20T00:40:19;101758.25;;;8.94;62.44
42411;BME280;28056;51.112;0.984;2023-02-20T00:42:47;101756.87;;;8.97;62.76
42411;BME280;28056;51.112;0.984;2023-02-20T00:45:15;101754.60;;;8.95;62.39
42411;BME280;28056;51.112;0.984;2023-02-20T00:47:43;101749.10;;;8.64;64.32
42411;BME280;28056;51.112;0.984;2023-02-20T00:50:15;101755.34;;;8.91;63.46
42411;BME280;28056;51.112;0.984;2023-02-20T00:52:43;101757.14;;;9.02;63.04
42411;BME280;28056;51.112;0.984;2023-02-20T00:55:11;101742.05;;;8.44;65.08
42411;BME280;28056;51.112;0.984;2023-02-20T00:57:38;101745.37;;;6.41;70.31
42411;BME280;28056;51.112;0.984;2023-02-20T01:00:09;101749.50;;;7.08;69.44
42411;BME280;28056;51.112;0.984;2023-02-20T01:04:48;101742.74;;;7.21;68.77
42411;BME280;28056;51.112;0.984;2023-02-20T01:07:16;101742.79;;;7.78;67.79
42411;BME280;28056;51.112;0.984;2023-02-20T01:09:43;101740.25;;;5.45;76.28
42411;BME280;28056;51.112;0.984;2023-02-20T01:12:11;101733.50;;;6.80;72.37
42411;BME280;28056;51.112;0.984;2023-02-20T01:14:38;101737.14;;;8.40;68.38
42411;BME280;28056;51.112;0.984;2023-02-20T01:17:05;101731.02;;;8.39;67.49
42411;BME280;28056;51.112;0.984;2023-02-20T01:19:32;101726.56;;;7.78;69.02
42411;BME280;28056;51.112;0.984;2023-02-20T01:22:00;101728.96;;;8.68;66.27
42411;BME280;28056;51.112;0.984;2023-02-20T01:24:27;101733.04;;;7.82;70.42
42411;BME280;28056;51.112;0.984;2023-02-20T01:26:55;101727.99;;;8.04;68.73
42411;BME280;28056;51.112;0.984;2023-02-20T01:29:22;101727.83;;;7.66;70.16
42411;BME280;28056;51.112;0.984;2023-02-20T01:31:51;101727.91;;;7.89;69.71
42411;BME280;28056;51.112;0.984;2023-02-20T01:34:19;101723.26;;;7.33;69.99
42411;BME280;28056;51.112;0.984;2023-02-20T01:36:48;101726.99;;;7.51;70.54
42411;BME280;28056;51.112;0.984;2023-02-20T01:39:17;101721.10;;;6.92;71.04
42411;BME280;28056;51.112;0.984;2023-02-20T01:41:46;101722.64;;;7.40;71.83
42411;BME280;28056;51.112;0.984;2023-02-20T01:44:19;101725.03;;;5.75;74.63
42411;BME280;28056;51.112;0.984;2023-02-20T01:46:50;101728.03;;;6.28;76.77
42411;BME280;28056;51.112;0.984;2023-02-20T01:49:23;101723.68;;;7.15;73.86
42411;BME280;28056;51.112;0.984;2023-02-20T01:51:57;101717.94;;;6.39;74.02
42411;BME280;28056;51.112;0.984;2023-02-20T01:54:26;101718.13;;;6.63;74.75
42411;BME280;28056;51.112;0.984;2023-02-20T01:56:57;101719.67;;;5.52;77.38
42411;BME280;28056;51.112;0.984;2023-02-20T01:59:29;101718.70;;;6.05;76.73
42411;BME280;28056;51.112;0.984;2023-02-20T02:01:58;101713.95;;;6.77;75.22
42411;BME280;28056;51.112;0.984;2023-02-20T02:04:26;101716.97;;;7.73;73.80
42411;BME280;28056;51.112;0.984;2023-02-20T02:06:54;101708.21;;;6.90;73.90
42411;BME280;28056;51.112;0.984;2023-02-20T02:09:31;101704.57;;;6.64;74.68
42411;BME280;28056;51.112;0.984;2023-02-20T02:11:59;101703.45;;;6.93;74.52
42411;BME280;28056;51.112;0.984;2023-02-20T02:14:27;101699.26;;;7.29;74.33
42411;BME280;28056;51.112;0.984;2023-02-20T02:17:10;101699.51;;;6.91;74.09
42411;BME280;28056;51.112;0.984;2023-02-20T02:22:27;101701.52;;;6.16;79.59
42411;BME280;28056;51.112;0.984;2023-02-20T02:25:16;101694.76;;;6.56;76.96
42411;BME280;28056;51.112;0.984;2023-02-20T02:28:24;101689.31;;;5.55;81.51
42411;BME280;28056;51.112;0.984;2023-02-20T02:33:52;101679.80;;;5.27;83.69
42411;BME280;28056;51.112;0.984;2023-02-20T02:37:03;101670.79;;;5.88;80.62
42411;BME280;28056;51.112;0.984;2023-02-20T02:39:43;101672.17;;;6.67;78.23
42411;BME280;28056;51.112;0.984;2023-02-20T02:42:19;101669.17;;;8.24;73.40
42411;BME280;28056;51.112;0.984;2023-02-20T02:44:55;101663.94;;;7.53;76.45
42411;BME280;28056;51.112;0.984;2023-02-20T02:47:31;101662.88;;;6.97;77.43
42411;BME280;28056;51.112;0.984;2023-02-20T02:50:05;101661.00;;;6.68;79.08
42411;BME280;28056;51.112;0.984;2023-02-20T02:52:34;101657.16;;;8.15;73.41
42411;BME280;28056;51.112;0.984;2023-02-20T02:55:03;101645.75;;;9.07;69.82
42411;BME280;28056;51.112;0.984;2023-02-20T02:57:31;101648.71;;;8.47;71.13
42411;BME280;28056;51.112;0.984;2023-02-20T03:00:02;101653.64;;;9.08;69.08
42411;BME280;28056;51.112;0.984;2023-02-20T03:02:34;101657.23;;;8.26;70.53
42411;BME280;28056;51.112;0.984;2023-02-20T03:05:05;101645.98;;;8.82;70.31
42411;BME280;28056;51.112;0.984;2023-02-20T03:07:37;101651.73;;;9.50;69.30
42411;BME280;28056;51.112;0.984;2023-02-20T03:10:08;101652.29;;;9.41;68.61
42411;BME280;28056;51.112;0.984;2023-02-20T03:12:38;101643.06;;;9.57;67.42
42411;BME280;28056;51.112;0.984;2023-02-20T03:15:10;101647.07;;;9.06;67.37
42411;BME280;28056;51.112;0.984;2023-02-20T03:17:44;101648.38;;;9.48;67.48
42411;BME280;28056;51.112;0.984;2023-02-20T03:20:15;101644.08;;;10.03;65.92
42411;BME280;28056;51.112;0.984;2023-02-20T03:22:45;101643.59;;;10.43;64.15
42411;BME280;28056;51.112;0.984;2023-02-20T03:25:18;101647.74;;;10.79;63.80
42411;BME280;28056;51.112;0.984;2023-02-20T03:27:51;101646.52;;;10.76;65.21
42411;BME280;28056;51.112;0.984;2023-02-20T03:30:23;101649.78;;;11.05;62.78
42411;BME280;28056;51.112;0.984;2023-02-20T03:32:59;101650.90;;;10.23;61.57
42411;BME280;28056;51.112;0.984;2023-02-20T03:35:29;101645.89;;;10.37;62.55
42411;BME280;28056;51.112;0.984;2023-02-20T03:37:59;101646.35;;;9.71;63.63
42411;BME280;28056;51.112;0.984;2023-02-20T03:40:30;101644.83;;;8.80;66.99
42411;BME280;28056;51.112;0.984;2023-02-20T03:43:02;101643.31;;;9.22;66.61
42411;BME280;28056;51.112;0.984;2023-02-20T03:45:33;101644.03;;;9.60;65.51
42411;BME280;28056;51.112;0.984;2023-02-20T03:48:07;101641.91;;;9.47;66.53
42411;BME280;28056;51.112;0.984;2023-02-20T03:50:37;101642.08;;;9.53;65.47
42411;BME280;28056;51.112;0.984;2023-02-20T03:53:04;101639.65;;;9.04;66.06
42411;BME280;28056;51.112;0.984;2023-02-20T03:55:31;101636.92;;;9.94;63.73
42411;BME280;28056;51.112;0.984;2023-02-20T03:58:01;101646.67;;;8.11;68.65
42411;BME280;28056;51.112;0.984;2023-02-20T04:00:35;101642.67;;;7.92;69.98
42411;BME280;28056;51.112;0.984;2023-02-20T04:03:09;101645.10;;;8.19;69.30
42411;BME280;28056;51.112;0.984;2023-02-20T04:05:42;101641.49;;;9.08;68.25
42411;BME280;28056;51.112;0.984;2023-02-20T04:08:14;101640.24;;;9.17;65.90
42411;BME280;28056;51.112;0.984;2023-02-20T04:10:46;101637.17;;;9.14;65.38
42411;BME280;28056;51.112;0.984;2023-02-20T04:13:16;101642.49;;;9.88;63.81
42411;BME280;28056;51.112;0.984;2023-02-20T04:15:45;101637.97;;;9.39;66.38
42411;BME280;28056;51.112;0.984;2023-02-20T04:18:15;101632.80;;;9.24;63.51
42411;BME280;28056;51.112;0.984;2023-02-20T04:20:48;101629.62;;;8.99;64.49
42411;BME280;28056;51.112;0.984;2023-02-20T04:23:20;101637.04;;;9.54;63.88
42411;BME280;28056;51.112;0.984;2023-02-20T04:25:51;101641.71;;;9.73;61.96
42411;BME280;28056;51.112;0.984;2023-02-20T04:28:20;101643.92;;;9.29;62.13
42411;BME280;28056;51.112;0.984;2023-02-20T04:30:48;101646.18;;;8.81;64.11
42411;BME280;28056;51.112;0.984;2023-02-20T04:33:16;101647.94;;;8.69;64.41
42411;BME280;28056;51.112;0.984;2023-02-20T04:35:44;101659.00;;;7.58;68.90
42411;BME280;28056;51.112;0.984;2023-02-20T04:38:11;101664.12;;;6.71;70.52
42411;BME280;28056;51.112;0.984;2023-02-20T04:40:39;101662.64;;;7.92;68.53
42411;BME280;28056;51.112;0.984;2023-02-20T04:43:07;101661.29;;;7.86;67.73
42411;BME280;28056;51.112;0.984;2023-02-20T04:45:34;101658.86;;;8.34;66.75
42411;BME280;28056;51.112;0.984;2023-02-20T04:48:01;101666.30;;;7.79;66.91
42411;BME280;28056;51.112;0.984;2023-02-20T04:50:31;101661.69;;;6.80;70.19
42411;BME280;28056;51.112;0.984;2023-02-20T04:52:59;101668.30;;;6.85;72.15
42411;BME280;28056;51.112;0.984;2023-02-20T04:55:27;101664.15;;;6.58;71.97
42411;BME280;28056;51.112;0.984;2023-02-20T04:57:55;101663.71;;;7.36;69.63
42411;BME280;28056;51.112;0.984;2023-02-20T05:00:24;101660.69;;;5.82;73.41
42411;BME280;28056;51.112;0.984;2023-02-20T05:02:52;101658.72;;;5.86;72.98
42411;BME280;28056;51.112;0.984;2023-02-20T05:05:21;101661.53;;;6.24;73.70
42411;BME280;28056;51.112;0.984;2023-02-20T05:07:53;101662.74;;;5.71;75.50
42411;BME280;28056;51.112;0.984;2023-02-20T05:10:22;101662.36;;;6.05;75.60
42411;BME280;28056;51.112;0.984;2023-02-20T05:12:51;101658.45;;;6.32;74.69
42411;BME280;28056;51.112;0.984;2023-02-20T05:15:18;101663.20;;;6.53;72.86
42411;BME280;28056;51.112;0.984;2023-02-20T05:17:46;101664.04;;;6.90;71.93
42411;BME280;28056;51.112;0.984;2023-02-20T05:20:14;101660.52;;;6.90;71.20
42411;BME280;28056;51.112;0.984;2023-02-20T05:22:41;101658.79;;;6.35;74.05
42411;BME280;28056;51.112;0.984;2023-02-20T05:25:11;101662.12;;;7.39;70.87
42411;BME280;28056;51.112;0.984;2023-02-20T05:27:39;101658.69;;;7.13;69.90
42411;BME280;28056;51.112;0.984;2023-02-20T05:30:07;101659.17;;;7.11;71.74
42411;BME280;28056;51.112;0.984;2023-02-20T05:32:35;101658.52;;;6.49;72.67
42411;BME280;28056;51.112;0.984;2023-02-20T05:35:02;101652.54;;;6.16;73.32
42411;BME280;28056;51.112;0.984;2023-02-20T05:37:29;101652.72;;;6.23;73.55
42411;BME280;28056;51.112;0.984;2023-02-20T05:39:57;101656.45;;;8.12;70.16
42411;BME280;28056;51.112;0.984;2023-02-20T05:42:25;101654.50;;;6.69;71.72
42411;BME280;28056;51.112;0.984;2023-02-20T05:44:52;101653.39;;;7.65;71.35
42411;BME280;28056;51.112;0.984;2023-02-20T05:47:19;101648.01;;;7.77;70.54
42411;BME280;28056;51.112;0.984;2023-02-20T05:49:46;101650.13;;;8.34;68.56
42411;BME280;28056;51.112;0.984;2023-02-20T05:52:14;101653.72;;;8.28;67.49
42411;BME280;28056;51.112;0.984;2023-02-20T05:54:45;101649.48;;;7.70;71.86
42411;BME280;28056;51.112;0.984;2023-02-20T05:57:12;101650.23;;;8.21;67.55
42411;BME280;28056;51.112;0.984;2023-02-20T05:59:41;101639.90;;;8.93;67.91
42411;BME280;28056;51.112;0.984;2023-02-20T06:02:08;101643.01;;;8.37;67.81
42411;BME280;28056;51.112;0.984;2023-02-20T06:04:35;101640.81;;;7.96;68.50
42411;BME280;28056;51.112;0.984;2023-02-20T06:07:03;101637.97;;;8.04;68.59
42411;BME280;28056;51.112;0.984;2023-02-20T06:09:30;101634.56;;;7.81;69.73
42411;BME280;28056;51.112;0.984;2023-02-20T06:11:57;101637.02;;;7.75;69.06
42411;BME280;28056;51.112;0.984;2023-02-20T06:14:25;101629.73;;;7.27;71.25
42411;BME280;28056;51.112;0.984;2023-02-20T06:16:53;101636.44;;;7.87;69.98
42411;BME280;28056;51.112;0.984;2023-02-20T06:19:24;101642.42;;;7.90;68.80
42411;BME280;28056;51.112;0.984;2023-02-20T06:21:53;101637.96;;;7.51;70.39
42411;BME280;28056;51.112;0.984;2023-02-20T06:24:20;101641.90;;;6.64;72.97
42411;BME280;28056;51.112;0.984;2023-02-20T06:26:48;101639.18;;;6.80;72.67
42411;BME280;28056;51.112;0.984;2023-02-20T06:29:17;101640.07;;;7.58;69.32
42411;BME280;28056;51.112;0.984;2023-02-20T06:31:44;101637.27;;;6.47;71.93
42411;BME280;28056;51.112;0.984;2023-02-20T06:34:12;101640.51;;;5.59;74.25
42411;BME280;28056;51.112;0.984;2023-02-20T06:36:41;101643.96;;;8.21;68.38
42411;BME280;28056;51.112;0.984;2023-02-20T06:39:10;101638.60;;;8.77;69.35
42411;BME280;28056;51.112;0.984;2023-02-20T06:41:38;101646.88;;;8.28;69.84
42411;BME280;28056;51.112;0.984;2023-02-20T06:44:05;101653.91;;;8.21;69.58
42411;BME280;28056;51.112;0.984;2023-02-20T06:46:32;101655.37;;;8.02;70.46
42411;BME280;28056;51.112;0.984;2023-02-20T06:48:59;101654.76;;;5.53;75.13
42411;BME280;28056;51.112;0.984;2023-02-20T06:51:28;101656.96;;;4.62;79.59
42411;BME280;28056;51.112;0.984;2023-02-20T06:53:56;101653.74;;;3.97;85.40
42411;BME280;28056;51.112;0.984;2023-02-20T06:56:26;101647.66;;;3.76;87.75
42411;BME280;28056;51.112;0.984;2023-02-20T06:58:54;101645.12;;;4.20;87.70
42411;BME280;28056;51.112;0.984;2023-02-20T07:01:24;101644.68;;;4.12;86.83
42411;BME280;28056;51.112;0.984;2023-02-20T07:03:52;101650.36;;;4.94;87.15
42411;BME280;28056;51.112;0.984;2023-02-20T07:06:19;101649.63;;;4.30;87.29
42411;BME280;28056;51.112;0.984;2023-02-20T07:08:47;101644.73;;;4.93;85.62
42411;BME280;28056;51.112;0.984;2023-02-20T07:11:17;101646.57;;;5.44;83.43
42411;BME280;28056;51.112;0.984;2023-02-20T07:13:44;101645.41;;;5.26;81.36
42411;BME280;28056;51.112;0.984;2023-02-20T07:16:12;101641.21;;;5.18;82.97
42411;BME280;28056;51.112;0.984;2023-02-20T07:18:39;101640.00;;;5.63;82.41
42411;BME280;28056;51.112;0.984;2023-02-20T07:21:07;101645.50;;;5.03;81.25
42411;BME280;28056;51.112;0.984;2023-02-20T07:23:35;101648.90;;;5.22;80.67
42411;BME280;28056;51.112;0.984;2023-02-20T07:26:03;101651.47;;;4.95;82.77
42411;BME280;28056;51.112;0.984;2023-02-20T07:28:33;101649.13;;;5.68;79.72
42411;BME280;28056;51.112;0.984;2023-02-20T07:31:00;101654.22;;;5.79;80.49
42411;BME280;28056;51.112;0.984;2023-02-20T07:33:28;101655.50;;;6.11;78.73
42411;BME280;28056;51.112;0.984;2023-02-20T07:35:55;101655.33;;;5.49;80.18
42411;BME280;28056;51.112;0.984;2023-02-20T07:38:23;101653.62;;;5.13;83.63
42411;BME280;28056;51.112;0.984;2023-02-20T07:40:51;101656.66;;;5.41;82.26
42411;BME280;28056;51.112;0.984;2023-02-20T07:43:18;101652.50;;;5.26;81.38
42411;BME280;28056;51.112;0.984;2023-02-20T07:45:46;101656.49;;;6.03;80.28
42411;BME280;28056;51.112;0.984;2023-02-20T07:48:13;101664.28;;;5.67;79.60
42411;BME280;28056;51.112;0.984;2023-02-20T07:50:41;101661.97;;;6.41;77.72
42411;BME280;28056;51.112;0.984;2023-02-20T07:53:09;101664.49;;;6.23;77.42
42411;BME280;28056;51.112;0.984;2023-02-20T07:55:40;101677.16;;;5.22;82.31
42411;BME280;28056;51.112;0.984;2023-02-20T07:58:07;101678.31;;;5.32;83.46
42411;BME280;28056;51.112;0.984;2023-02-20T08:00:35;101681.66;;;5.21;84.47
42411;BME280;28056;51.112;0.984;2023-02-20T08:03:08;101681.72;;;5.06;84.17
42411;BME280;28056;51.112;0.984;2023-02-20T08:05:36;101685.08;;;4.26;87.47
42411;BME280;28056;51.112;0.984;2023-02-20T08:08:04;101688.70;;;4.62;87.37
42411;BME280;28056;51.112;0.984;2023-02-20T08:10:31;101687.67;;;4.56;86.01
42411;BME280;28056;51.112;0.984;2023-02-20T08:12:59;101682.88;;;4.69;87.16
42411;BME280;28056;51.112;0.984;2023-02-20T08:15:27;101686.26;;;5.01;85.96
42411;BME280;28056;51.112;0.984;2023-02-20T08:17:55;101688.55;;;4.81;86.80
42411;BME280;28056;51.112;0.984;2023-02-20T08:20:22;101688.18;;;4.95;85.04
42411;BME280;28056;51.112;0.984;2023-02-20T08:22:49;101686.14;;;5.50;83.30
42411;BME280;28056;51.112;0.984;2023-02-20T08:25:17;101680.87;;;5.36;83.65
42411;BME280;28056;51.112;0.984;2023-02-20T08:27:47;101684.08;;;6.03;82.80
42411;BME280;28056;51.112;0.984;2023-02-20T08:30:17;101683.49;;;5.45;81.07
42411;BME280;28056;51.112;0.984;2023-02-20T08:32:45;101685.77;;;5.52;82.50
42411;BME280;28056;51.112;0.984;2023-02-20T08:35:12;101680.12;;;5.78;82.15
42411;BME280;28056;51.112;0.984;2023-02-20T08:37:39;101679.33;;;6.21;79.16
42411;BME280;28056;51.112;0.984;2023-02-20T08:40:08;101674.14;;;6.25;79.77
42411;BME280;28056;51.112;0.984;2023-02-20T08:42:36;101675.73;;;5.21;83.32
42411;BME280;28056;51.112;0.984;2023-02-20T08:45:05;101675.60;;;4.91;84.65
42411;BME280;28056;51.112;0.984;2023-02-20T08:47:32;101671.95;;;5.90;80.18
42411;BME280;28056;51.112;0.984;2023-02-20T08:50:00;101673.80;;;5.48;81.18
42411;BME280;28056;51.112;0.984;2023-02-20T08:52:28;101670.68;;;5.77;82.67
42411;BME280;28056;51.112;0.984;2023-02-20T08:54:56;101673.15;;;4.84;86.28
42411;BME280;28056;51.112;0.984;2023-02-20T08:57:24;101677.92;;;4.58;86.92
42411;BME280;28056;51.112;0.984;2023-02-20T08:59:51;101678.11;;;5.07;85.46
42411;BME280;28056;51.112;0.984;2023-02-20T09:02:20;101682.50;;;6.27;82.53
42411;BME280;28056;51.112;0.984;2023-02-20T09:04:48;101685.96;;;5.48;83.27
42411;BME280;28056;51.112;0.984;2023-02-20T09:07:16;101682.09;;;4.35;87.20
42411;BME280;28056;51.112;0.984;2023-02-20T09:09:43;101684.61;;;4.60;87.63
42411;BME280;28056;51.112;0.984;2023-02-20T09:12:10;101686.08;;;5.85;84.19
42411;BME280;28056;51.112;0.984;2023-02-20T09:14:38;101683.79;;;5.30;85.27
42411;BME280;28056;51.112;0.984;2023-02-20T09:17:06;101689.31;;;5.05;85.58
42411;BME280;28056;51.112;0.984;2023-02-20T09:19:33;101685.31;;;5.79;83.68
42411;BME280;28056;51.112;0.984;2023-02-20T09:22:01;101688.59;;;6.08;82.65
42411;BME280;28056;51.112;0.984;2023-02-20T09:24:29;101685.61;;;5.68;84.60
42411;BME280;28056;51.112;0.984;2023-02-20T09:26:57;101676.32;;;5.48;85.10
42411;BME280;28056;51.112;0.984;2023-02-20T09:29:25;101673.06;;;5.49;85.30
42411;BME280;28056;51.112;0.984;2023-02-20T09:31:52;101679.27;;;5.59;83.24
42411;BME280;28056;51.112;0.984;2023-02-20T09:34:20;101676.95;;;5.15;86.90
42411;BME280;28056;51.112;0.984;2023-02-20T09:36:48;101676.02;;;5.24;87.51
42411;BME280;28056;51.112;0.984;2023-02-20T09:39:15;101666.68;;;4.94;86.15
42411;BME280;28056;51.112;0.984;2023-02-20T09:41:58;101665.38;;;6.23;83.19
42411;BME280;28056;51.112;0.984;2023-02-20T09:44:35;101657.00;;;6.22;80.45
42411;BME280;28056;51.112;0.984;2023-02-20T09:47:11;101668.22;;;5.43;82.73
42411;BME280;28056;51.112;0.984;2023-02-20T09:49:45;101677.53;;;6.16;83.00
42411;BME280;28056;51.112;0.984;2023-02-20T09:52:15;101662.87;;;6.59;80.31
42411;BME280;28056;51.112;0.984;2023-02-20T09:54:48;101670.84;;;7.77;75.61
42411;BME280;28056;51.112;0.984;2023-02-20T09:57:21;101668.40;;;5.32;83.38
42411;BME280;28056;51.112;0.984;2023-02-20T09:59:52;101667.42;;;6.89;81.72
42411;BME280;28056;51.112;0.984;2023-02-20T10:02:24;101667.36;;;5.91;82.29
42411;BME280;28056;51.112;0.984;2023-02-20T10:04:55;101669.93;;;6.53;81.95
42411;BME280;28056;51.112;0.984;2023-02-20T10:07:25;101669.69;;;5.71;82.46
42411;BME280;28056;51.112;0.984;2023-02-20T10:09:54;101660.72;;;6.57;80.97
42411;BME280;28056;51.112;0.984;2023-02-20T10:12:27;101658.13;;;6.17;81.97
42411;BME280;28056;51.112;0.984;2023-02-20T10:15:08;101657.22;;;6.46;78.91
42411;BME280;28056;51.112;0.984;2023-02-20T10:17:43;101656.59;;;7.00;78.38
42411;BME280;28056;51.112;0.984;2023-02-20T10:20:19;101652.77;;;7.01;77.28
42411;BME280;28056;51.112;0.984;2023-02-20T10:22:55;101647.23;;;6.39;79.59
42411;BME280;28056;51.112;0.984;2023-02-20T10:25:28;101643.09;;;6.53;80.56
42411;BME280;28056;51.112;0.984;2023-02-20T10:28:03;101646.51;;;7.50;76.60
42411;BME280;28056;51.112;0.984;2023-02-20T10:30:34;101653.64;;;6.39;79.52
42411;BME280;28056;51.112;0.984;2023-02-20T10:33:14;101648.61;;;7.67;78.39
42411;BME280;28056;51.112;0.984;2023-02-20T10:35:48;101643.99;;;7.27;76.73
42411;BME280;28056;51.112;0.984;2023-02-20T10:38:22;101643.89;;;6.19;80.89
42411;BME280;28056;51.112;0.984;2023-02-20T10:40:56;101642.17;;;6.69;80.79
42411;BME280;28056;51.112;0.984;2023-02-20T10:43:29;101645.29;;;6.70;78.76
42411;BME280;28056;51.112;0.984;2023-02-20T10:46:06;101637.10;;;6.30;80.70
42411;BME280;28056;51.112;0.984;2023-02-20T10:48:38;101641.60;;;6.63;80.36
42411;BME280;28056;51.112;0.984;2023-02-20T10:51:08;101630.31;;;6.04;81.80
42411;BME280;28056;51.112;0.984;2023-02-20T10:53:44;101633.87;;;6.05;82.48
42411;BME280;28056;51.112;0.984;2023-02-20T10:56:17;101632.92;;;6.44;82.63
42411;BME280;28056;51.112;0.984;2023-02-20T10:58:52;101633.77;;;6.72;81.03
42411;BME280;28056;51.112;0.984;2023-02-20T11:01:23;101629.37;;;8.01;77.13
42411;BME280;28056;51.112;0.984;2023-02-20T11:03:56;101633.80;;;7.59;75.40
42411;BME280;28056;51.112;0.984;2023-02-20T11:06:30;101633.15;;;7.33;77.82
42411;BME280;28056;51.112;0.984;2023-02-20T11:08:59;101631.51;;;6.89;78.81
42411;BME280;28056;51.112;0.984;2023-02-20T11:11:30;101630.05;;;6.18;81.71
42411;BME280;28056;51.112;0.984;2023-02-20T11:13:59;101623.94;;;6.76;80.32
42411;BME280;28056;51.112;0.984;2023-02-20T11:16:31;101626.65;;;6.86;80.39
42411;BME280;28056;51.112;0.984;2023-02-20T11:19:07;101622.52;;;7.97;77.86
42411;BME280;28056;51.112;0.984;2023-02-20T11:21:38;101624.50;;;7.00;77.94
42411;BME280;28056;51.112;0.984;2023-02-20T11:24:28;101623.29;;;7.00;78.05
42411;BME280;28056;51.112;0.984;2023-02-20T11:27:00;101619.70;;;7.60;78.79
42411;BME280;28056;51.112;0.984;2023-02-20T11:29:34;101619.29;;;7.75;76.97
42411;BME280;28056;51.112;0.984;2023-02-20T11:32:36;101607.81;;;6.56;79.94
42411;BME280;28056;51.112;0.984;2023-02-20T11:35:24;101609.05;;;7.23;78.77
42411;BME280;28056;51.112;0.984;2023-02-20T11:38:26;101608.40;;;7.36;75.80
42411;BME280;28056;51.112;0.984;2023-02-20T11:41:07;101617.46;;;7.59;77.38
42411;BME280;28056;51.112;0.984;2023-02-20T11:43:36;101612.25;;;6.91;79.54
42411;BME280;28056;51.112;0.984;2023-02-20T11:46:09;101610.37;;;7.10;78.57
42411;BME280;28056;51.112;0.984;2023-02-20T11:48:36;101612.85;;;7.16;78.45
42411;BME280;28056;51.112;0.984;2023-02-20T11:51:04;101615.53;;;7.28;80.13
42411;BME280;28056;51.112;0.984;2023-02-20T11:53:33;101608.78;;;7.16;78.19
42411;BME280;28056;51.112;0.984;2023-02-20T11:56:09;101610.76;;;7.20;78.05
42411;BME280;28056;51.112;0.984;2023-02-20T11:58:38;101607.90;;;7.80;77.70
42411;BME280;28056;51.112;0.984;2023-02-20T12:01:06;101604.34;;;8.07;76.48
42411;BME280;28056;51.112;0.984;2023-02-20T12:03:35;101606.13;;;8.52;73.60
42411;BME280;28056;51.112;0.984;2023-02-20T12:06:37;101605.49;;;7.48;76.30
42411;BME280;28056;51.112;0.984;2023-02-20T12:09:08;101598.24;;;8.17;74.81
42411;BME280;28056;51.112;0.984;2023-02-20T12:11:38;101591.19;;;7.90;74.22
42411;BME280;28056;51.112;0.984;2023-02-20T12:14:10;101586.14;;;7.26;77.62
42411;BME280;28056;51.112;0.984;2023-02-20T12:16:58;101584.49;;;6.91;80.57
42411;BME280;28056;51.112;0.984;2023-02-20T12:19:36;101572.35;;;7.54;76.98
42411;BME280;28056;51.112;0.984;2023-02-20T12:22:16;101566.97;;;7.10;80.00
42411;BME280;28056;51.112;0.984;2023-02-20T12:24:54;101558.35;;;7.15;79.65
42411;BME280;28056;51.112;0.984;2023-02-20T12:27:38;101554.38;;;7.50;79.94
42411;BME280;28056;51.112;0.984;2023-02-20T12:30:23;101539.02;;;8.77;73.87
42411;BME280;28056;51.112;0.984;2023-02-20T12:33:01;101531.83;;;8.27;74.19
42411;BME280;28056;51.112;0.984;2023-02-20T12:35:35;101520.66;;;9.63;73.05
42411;BME280;28056;51.112;0.984;2023-02-20T12:38:22;101522.57;;;10.66;66.70
42411;BME280;28056;51.112;0.984;2023-02-20T12:41:11;101530.52;;;10.93;64.83
42411;BME280;28056;51.112;0.984;2023-02-20T12:43:56;101515.39;;;10.88;62.43
42411;BME280;28056;51.112;0.984;2023-02-20T12:46:32;101509.71;;;10.08;63.78
42411;BME280;28056;51.112;0.984;2023-02-20T12:49:16;101521.54;;;10.53;65.36
42411;BME280;28056;51.112;0.984;2023-02-20T12:51:49;101524.72;;;10.64;64.78
42411;BME280;28056;51.112;0.984;2023-02-20T12:54:31;101521.17;;;8.25;69.38
42411;BME280;28056;51.112;0.984;2023-02-20T12:57:12;101519.76;;;8.54;70.05
42411;BME280;28056;51.112;0.984;2023-02-20T12:59:48;101524.29;;;8.78;70.21
42411;BME280;28056;51.112;0.984;2023-02-20T13:02:21;101506.24;;;7.92;72.21
42411;BME280;28056;51.112;0.984;2023-02-20T13:04:53;101500.84;;;8.57;73.38
42411;BME280;28056;51.112;0.984;2023-02-20T13:07:29;101500.39;;;8.86;69.96
42411;BME280;28056;51.112;0.984;2023-02-20T13:10:05;101492.71;;;9.09;71.28
42411;BME280;28056;51.112;0.984;2023-02-20T13:12:34;101472.34;;;9.72;67.44
42411;BME280;28056;51.112;0.984;2023-02-20T13:15:13;101471.41;;;9.79;65.48
42411;BME280;28056;51.112;0.984;2023-02-20T13:17:48;101469.38;;;10.15;66.87
42411;BME280;28056;51.112;0.984;2023-02-20T13:20:20;101462.65;;;11.30;62.48
42411;BME280;28056;51.112;0.984;2023-02-20T13:23:23;101467.82;;;12.29;60.39
42411;BME280;28056;51.112;0.984;2023-02-20T13:25:52;101473.29;;;12.25;57.08
42411;BME280;28056;51.112;0.984;2023-02-20T13:28:32;101472.87;;;12.38;54.73